createdAt,value
2022-08-22T00:03:09.681Z,94.61
2022-08-22T00:04:13.322Z,96.36
2022-08-22T00:09:29.380Z,96.71
2022-08-22T00:14:49.365Z,96.87
2022-08-22T00:20:13.097Z,96.18
2022-08-22T00:25:39.260Z,96.98
2022-08-22T00:31:19.578Z,96.60
2022-08-22T00:36:38.761Z,96.59
2022-08-22T00:42:31.364Z,96.65
2022-08-22T00:47:54.899Z,96.83
2022-08-22T00:53:39.679Z,96.92
2022-08-22T00:59:23.802Z,97.34
2022-08-22T01:04:41.350Z,96.91
2022-08-22T01:10:14.592Z,97.29
2022-08-22T01:15:24.371Z,97.31
2022-08-22T01:21:33.760Z,97.55
2022-08-22T01:27:10.641Z,97.69
2022-08-22T01:32:38.963Z,97.50
2022-08-22T01:37:43.962Z,97.80
2022-08-22T01:43:08.867Z,97.87
2022-08-22T01:48:40.329Z,97.85
2022-08-22T01:54:00.451Z,98.09
2022-08-22T01:59:05.332Z,97.87
2022-08-22T02:04:42.456Z,98.50
2022-08-22T02:10:06.214Z,98.26
2022-08-22T02:15:33.306Z,98.10
2022-08-22T02:20:53.775Z,98.38
2022-08-22T02:26:01.469Z,97.82
2022-08-22T02:31:12.261Z,97.83
2022-08-22T02:36:25.222Z,98.30
2022-08-22T02:41:44.317Z,98.33
2022-08-22T02:47:06.768Z,98.40
2022-08-22T02:52:29.532Z,98.54
2022-08-22T02:57:56.828Z,98.71
2022-08-22T03:03:22.733Z,97.86
2022-08-22T03:08:32.181Z,98.01
2022-08-22T03:13:41.359Z,98.31
2022-08-22T03:19:18.388Z,98.21
2022-08-22T03:24:36.993Z,98.24
2022-08-22T03:29:46.896Z,98.95
2022-08-22T03:35:02.012Z,98.77
2022-08-22T03:40:19.528Z,99.08
2022-08-22T03:46:09.457Z,98.85
2022-08-22T03:51:19.631Z,98.51
2022-08-22T03:57:09.746Z,98.49
2022-08-22T04:02:43.287Z,99.12
2022-08-22T04:08:11.685Z,98.52
2022-08-22T04:13:39.543Z,98.52
2022-08-22T04:18:53.568Z,98.68
2022-08-22T04:24:20.461Z,98.57
2022-08-22T04:29:48.938Z,98.24
2022-08-22T04:34:56.828Z,98.09
2022-08-22T04:40:23.400Z,98.18
2022-08-22T04:45:36.808Z,98.54
2022-08-22T04:50:58.878Z,98.59
2022-08-22T04:56:15.482Z,98.74
2022-08-22T05:01:43.456Z,98.59
2022-08-22T05:06:50.587Z,98.60
2022-08-22T05:11:58.087Z,98.63
2022-08-22T05:17:01.336Z,98.63
2022-08-22T05:22:04.100Z,98.69
2022-08-22T05:27:18.199Z,98.50
2022-08-22T05:32:35.141Z,98.59
2022-08-22T05:37:44.793Z,98.52
2022-08-22T05:42:47.033Z,98.67
2022-08-22T05:47:51.000Z,98.52
2022-08-22T05:53:10.691Z,98.94
2022-08-22T05:58:38.796Z,98.66
2022-08-22T06:03:53.748Z,98.62
2022-08-22T06:09:02.736Z,98.30
2022-08-22T06:14:14.212Z,98.49
2022-08-22T06:19:20.207Z,98.51
2022-08-22T06:24:28.004Z,98.62
2022-08-22T06:29:32.593Z,98.89
2022-08-22T06:34:38.331Z,98.52
2022-08-22T06:39:45.213Z,98.81
2022-08-22T06:45:22.790Z,98.21
2022-08-22T06:50:31.126Z,98.16
2022-08-22T06:55:36.081Z,98.51
2022-08-22T07:00:42.592Z,98.41
2022-08-22T07:05:44.596Z,98.75
2022-08-22T07:10:58.877Z,98.97
2022-08-22T07:16:07.015Z,98.94
2022-08-22T07:21:09.649Z,98.85
2022-08-22T07:26:15.252Z,99.31
2022-08-22T07:31:43.843Z,99.26
2022-08-22T07:37:07.396Z,99.29
2022-08-22T07:42:16.751Z,99.76
2022-08-22T07:47:26.330Z,99.99
2022-08-22T07:52:40.490Z,99.91
2022-08-22T07:57:49.634Z,100.00
2022-08-22T08:02:58.340Z,100.00
2022-08-22T08:08:02.711Z,99.88
2022-08-22T08:13:09.694Z,100.00
2022-08-22T08:18:19.244Z,100.00
2022-08-22T08:23:23.623Z,100.00
2022-08-22T08:28:35.079Z,100.00
2022-08-22T08:33:44.827Z,99.91
2022-08-22T08:38:59.094Z,100.00
2022-08-22T08:44:17.889Z,100.00
2022-08-22T08:49:29.355Z,100.00
2022-08-22T08:54:51.702Z,100.00
2022-08-22T09:00:11.123Z,100.00
2022-08-22T09:05:26.150Z,100.00
2022-08-22T09:10:41.138Z,100.00
2022-08-22T09:16:06.614Z,99.73
2022-08-22T09:21:35.214Z,99.52
2022-08-22T09:32:28.719Z,99.17
2022-08-22T09:37:36.205Z,99.12
2022-08-22T09:40:16.579Z,99.65
2022-08-22T09:42:46.758Z,98.82
2022-08-22T09:48:23.777Z,99.09
2022-08-22T09:53:56.596Z,99.40
2022-08-22T09:59:42.587Z,99.29
2022-08-22T10:04:47.970Z,99.39
2022-08-22T10:10:06.082Z,99.10
2022-08-22T10:15:21.956Z,99.11
2022-08-22T10:20:30.283Z,98.75
2022-08-22T10:25:41.662Z,98.75
2022-08-22T10:30:56.682Z,99.00
2022-08-22T10:36:11.904Z,99.31
2022-08-22T10:42:04.778Z,99.33
2022-08-22T10:47:13.148Z,98.44
2022-08-22T10:52:18.829Z,98.13
2022-08-22T10:57:33.091Z,97.84
2022-08-22T11:02:49.470Z,98.02
2022-08-22T11:08:08.073Z,98.00
2022-08-22T11:13:34.494Z,97.70
2022-08-22T11:19:14.891Z,97.95
2022-08-22T11:24:54.063Z,98.02
2022-08-22T11:30:18.492Z,97.78
2022-08-22T11:35:24.285Z,97.66
2022-08-22T11:40:42.299Z,97.89
2022-08-22T11:45:47.969Z,97.46
2022-08-22T11:51:15.476Z,97.12
2022-08-22T11:56:35.741Z,96.68
2022-08-22T12:01:52.795Z,96.73
2022-08-22T12:07:16.621Z,97.14
2022-08-22T12:12:37.995Z,97.04
2022-08-22T12:18:10.979Z,97.06
2022-08-22T12:23:43.392Z,96.53
2022-08-22T12:29:15.439Z,96.31
2022-08-22T12:34:31.405Z,96.55
2022-08-22T12:39:40.318Z,96.54
2022-08-22T12:44:58.082Z,96.31
2022-08-22T12:50:15.490Z,96.36
2022-08-22T12:55:30.638Z,96.44
2022-08-22T13:00:45.069Z,95.95
2022-08-22T13:05:56.676Z,96.78
2022-08-22T13:11:09.932Z,95.91
2022-08-22T13:16:34.555Z,95.66
2022-08-22T13:21:43.872Z,95.74
2022-08-22T13:26:55.133Z,95.71
2022-08-22T13:32:01.998Z,95.53
2022-08-22T13:37:05.303Z,95.11
2022-08-22T13:42:29.763Z,95.42
2022-08-22T13:47:39.451Z,95.72
2022-08-22T13:52:52.523Z,95.01
2022-08-22T13:58:12.228Z,95.24
2022-08-22T14:03:23.850Z,94.66
2022-08-22T14:08:28.756Z,94.07
2022-08-22T14:13:42.945Z,94.31
2022-08-22T14:18:50.644Z,93.60
2022-08-22T14:23:55.417Z,93.86
2022-08-22T14:29:02.962Z,93.95
2022-08-22T14:34:10.542Z,93.88
2022-08-22T14:39:51.553Z,93.54
2022-08-22T14:45:17.581Z,93.43
2022-08-22T14:50:40.612Z,93.47
2022-08-22T14:55:53.909Z,93.22
2022-08-22T15:00:57.459Z,93.91
2022-08-22T15:06:10.146Z,93.30
2022-08-22T15:11:18.513Z,93.36
2022-08-22T15:16:31.846Z,93.64
2022-08-22T15:21:37.216Z,93.66
2022-08-22T15:26:55.451Z,93.19
2022-08-22T15:32:03.713Z,93.84
2022-08-22T15:37:17.555Z,93.49
2022-08-22T15:42:26.957Z,93.22
2022-08-22T15:47:40.191Z,93.94
2022-08-22T15:53:09.446Z,93.40
2022-08-22T15:58:21.918Z,94.12
2022-08-22T16:03:28.343Z,93.59
2022-08-22T16:08:52.251Z,94.03
2022-08-22T16:14:21.763Z,93.56
2022-08-22T16:19:27.265Z,93.85
2022-08-22T16:24:36.823Z,93.76
2022-08-22T16:29:41.800Z,93.73
2022-08-22T16:34:45.845Z,93.77
2022-08-22T16:40:04.404Z,93.87
2022-08-22T16:45:24.597Z,93.68
2022-08-22T16:50:37.725Z,93.61
2022-08-22T16:55:43.866Z,93.76
2022-08-22T17:00:48.764Z,93.84
2022-08-22T17:06:32.291Z,93.61
2022-08-22T17:11:44.954Z,94.08
2022-08-22T17:16:49.708Z,93.70
2022-08-22T17:21:59.913Z,93.58
2022-08-22T17:27:02.879Z,94.12
2022-08-22T17:32:20.271Z,94.20
2022-08-22T17:37:33.276Z,93.84
2022-08-22T17:42:44.019Z,94.33
2022-08-22T17:48:01.086Z,94.55
2022-08-22T17:53:08.945Z,94.84
2022-08-22T17:58:31.870Z,94.91
2022-08-22T18:03:47.004Z,95.26
2022-08-22T18:14:25.376Z,95.25
2022-08-22T18:19:43.131Z,95.40
2022-08-22T18:24:48.854Z,95.54
2022-08-22T18:30:01.894Z,95.46
2022-08-22T18:35:15.203Z,95.40
2022-08-22T18:40:46.844Z,95.82
2022-08-22T18:45:52.037Z,95.90
2022-08-22T18:51:30.450Z,96.32
2022-08-22T18:57:06.902Z,96.44
2022-08-22T19:02:34.601Z,95.93
2022-08-22T19:07:51.180Z,95.50
2022-08-22T19:13:11.721Z,95.90
2022-08-22T19:18:26.757Z,95.97
2022-08-22T19:23:35.827Z,96.12
2022-08-22T19:28:37.561Z,95.68
2022-08-22T19:33:41.816Z,96.06
2022-08-22T19:38:53.718Z,95.62
2022-08-22T19:43:55.488Z,95.82
2022-08-22T19:48:58.328Z,95.70
2022-08-22T19:54:17.704Z,95.99
2022-08-22T19:59:22.281Z,95.80
2022-08-22T20:04:45.132Z,95.54
2022-08-22T20:10:02.429Z,95.55
2022-08-22T20:15:22.364Z,94.97
2022-08-22T20:20:30.573Z,94.89
2022-08-22T20:25:49.341Z,95.46
2022-08-22T20:30:57.656Z,95.38
2022-08-22T20:36:03.576Z,95.39
2022-08-22T20:41:20.963Z,94.57
2022-08-22T20:46:28.912Z,94.77
2022-08-22T20:51:32.524Z,94.41
2022-08-22T20:56:37.516Z,94.57
2022-08-22T21:01:39.545Z,94.40
2022-08-22T21:06:41.544Z,94.72
2022-08-22T21:11:50.165Z,94.21
2022-08-22T21:16:53.333Z,94.18
2022-08-22T21:22:25.540Z,94.38
2022-08-22T21:27:32.037Z,93.89
2022-08-22T21:32:52.291Z,93.99
2022-08-22T21:37:59.235Z,94.06
2022-08-22T21:43:13.517Z,94.18
2022-08-22T21:48:37.098Z,94.96
2022-08-22T21:53:39.134Z,94.13
2022-08-22T21:58:41.809Z,94.41
2022-08-22T22:03:43.682Z,94.62
2022-08-22T22:08:46.466Z,95.11
2022-08-22T22:13:48.964Z,94.95
2022-08-22T22:18:50.951Z,95.04
2022-08-22T22:23:53.098Z,95.86
2022-08-22T22:28:54.870Z,95.63
2022-08-22T22:33:57.877Z,95.96
2022-08-22T22:38:59.655Z,95.95
2022-08-22T22:44:01.934Z,95.83
2022-08-22T22:49:03.922Z,96.25
2022-08-22T22:54:05.859Z,96.26
2022-08-22T22:59:13.491Z,95.78
2022-08-22T23:04:16.536Z,95.95
2022-08-22T23:09:18.396Z,95.79
2022-08-22T23:14:20.163Z,96.15
2022-08-22T23:19:22.107Z,96.07
2022-08-22T23:24:25.123Z,95.98
2022-08-22T23:29:27.337Z,96.19
2022-08-22T23:34:35.576Z,96.11
2022-08-22T23:39:38.430Z,96.11
2022-08-22T23:44:42.449Z,96.22
2022-08-22T23:49:44.716Z,96.18
2022-08-22T23:54:46.548Z,96.29
2022-08-22T23:59:58.007Z,96.64
